KIJD

Windham Airport

Willimantic, Connecticut, USA
METAR KIJD 232214Z AUTO 17007KT 5SM -RA BR OVC009 03/02 A3037 RMK AO2 CIG 006V012 P0001 T00280017 TSNO
Observed Flight Rules
Feb-23 @ 22:14 UTC (24 minutes ago) Instrument Flight Rules
Wind Visibility Clouds Conditions
170° at 7 knots 5 miles
  • Overcast at 900' AGL
  • Light Rain
  • Mist
Temperatures Readings Precipitation
Current 3°C / 37°F
Dewpoint 2°C / 36°F
Humidity 93%
Altimeter 30.37" Hg
Pressure 1028 hPa
Elevation 75
Current Rain 0.01
METAR KIJD 232214Z AUTO 17007KT 5SM -RA BR OVC009 03/02 A3037 RMK AO2 CIG 006V012 P0001 T00280017 TSNO
Observed Flight Rules
Feb-23 @ 22:14 UTC
(24 minutes ago)
IFR
Wind Visibility
170° at 7 knots 5 miles
Clouds
  • Overcast at 900' AGL
Conditions
  • Light Rain
  • Mist
Temperature Dewpoint
3°C / 37°F 2°C / 36°F
Humidity Altimeter Pressure
93% 30.37" Hg 1028 hPa
Current Rain
0.01